createdAt,value
2018-07-12T00:00:12.578Z,4.00
2018-07-12T00:01:12.579Z,3.80
2018-07-12T00:02:12.555Z,5.30
2018-07-12T00:03:12.545Z,3.80
2018-07-12T00:04:12.533Z,3.50
2018-07-12T00:05:12.523Z,3.60
2018-07-12T00:06:12.536Z,3.90
2018-07-12T00:07:12.505Z,4.10
2018-07-12T00:08:12.493Z,4.10
2018-07-12T00:09:12.483Z,4.10
2018-07-12T00:10:12.471Z,3.90
2018-07-12T00:11:12.460Z,4.00
2018-07-12T00:12:12.463Z,4.10
2018-07-12T00:13:12.438Z,4.00
2018-07-12T00:14:12.427Z,3.80
2018-07-12T00:15:12.417Z,3.80
2018-07-12T00:16:12.412Z,4.00
2018-07-12T00:17:12.412Z,4.20
2018-07-12T00:18:12.385Z,3.90
2018-07-12T00:19:12.373Z,4.00
2018-07-12T00:20:12.368Z,3.80
2018-07-12T00:21:12.352Z,4.00
2018-07-12T00:22:12.358Z,3.90
2018-07-12T00:23:12.331Z,4.20
2018-07-12T00:24:12.321Z,4.20
2018-07-12T00:25:12.310Z,4.00
2018-07-12T00:26:12.299Z,4.30
2018-07-12T00:27:12.313Z,3.70
2018-07-12T00:28:12.277Z,4.10
2018-07-12T00:29:12.268Z,3.80
2018-07-12T00:30:12.257Z,3.60
2018-07-12T00:31:12.247Z,3.70
2018-07-12T00:32:12.251Z,4.10
2018-07-12T00:33:12.227Z,3.70
2018-07-12T00:34:12.215Z,3.90
2018-07-12T00:35:12.205Z,4.00
2018-07-12T00:36:12.196Z,4.10
2018-07-12T00:37:12.200Z,3.80
2018-07-12T00:38:12.172Z,3.90
2018-07-12T00:39:12.164Z,3.90
2018-07-12T00:40:12.152Z,3.90
2018-07-12T00:41:12.143Z,3.70
2018-07-12T00:42:12.145Z,3.80
2018-07-12T00:43:12.120Z,4.60
2018-07-12T00:44:12.110Z,3.60
2018-07-12T00:45:12.101Z,3.80
2018-07-12T00:46:12.088Z,3.70
2018-07-12T00:47:12.091Z,3.60
2018-07-12T00:48:12.069Z,3.60
2018-07-12T00:49:12.057Z,3.60
2018-07-12T00:50:12.046Z,3.80
2018-07-12T00:51:12.035Z,4.70
2018-07-12T00:52:12.040Z,3.80
2018-07-12T00:53:12.015Z,3.80
2018-07-12T00:54:12.004Z,4.00
2018-07-12T00:55:11.993Z,3.50
2018-07-12T00:56:11.984Z,3.80
2018-07-12T00:57:12.002Z,3.80
2018-07-12T00:58:11.963Z,3.80
2018-07-12T00:59:11.953Z,3.80
2018-07-12T01:00:11.940Z,3.40
2018-07-12T01:01:11.932Z,3.90
2018-07-12T01:02:11.918Z,3.80
2018-07-12T01:03:11.922Z,3.70
2018-07-12T01:04:11.897Z,3.60
2018-07-12T01:05:11.896Z,3.30
2018-07-12T01:06:11.876Z,3.50
2018-07-12T01:07:11.866Z,3.70
2018-07-12T01:08:11.868Z,4.00
2018-07-12T01:09:11.844Z,3.80
2018-07-12T01:10:11.836Z,3.60
2018-07-12T01:11:11.826Z,3.80
2018-07-12T01:12:11.893Z,4.00
2018-07-12T01:13:11.843Z,3.70
2018-07-12T01:14:11.795Z,3.70
2018-07-12T01:15:11.781Z,3.70
2018-07-12T01:16:11.769Z,3.60
2018-07-12T01:17:11.760Z,3.60
2018-07-12T01:18:11.764Z,3.70
2018-07-12T01:19:11.738Z,3.50
2018-07-12T01:20:11.727Z,3.70
2018-07-12T01:21:11.716Z,3.50
2018-07-12T01:22:11.706Z,3.60
2018-07-12T01:23:11.711Z,3.60
2018-07-12T01:24:11.687Z,3.50
2018-07-12T01:25:11.675Z,4.10
2018-07-12T01:26:11.665Z,3.70
2018-07-12T01:27:11.652Z,3.60
2018-07-12T01:28:11.656Z,3.60
2018-07-12T01:29:11.632Z,3.60
2018-07-12T01:30:11.621Z,3.40
2018-07-12T01:31:11.611Z,3.80
2018-07-12T01:32:11.599Z,3.70
2018-07-12T01:33:11.603Z,4.30
2018-07-12T01:34:11.579Z,3.20
2018-07-12T01:35:11.567Z,3.50
2018-07-12T01:36:11.652Z,3.70
2018-07-12T01:37:11.548Z,4.00
2018-07-12T01:38:11.551Z,3.50
2018-07-12T01:39:11.525Z,3.20
2018-07-12T01:40:11.514Z,3.80
2018-07-12T01:41:11.504Z,3.30
2018-07-12T01:42:11.493Z,3.50
2018-07-12T01:43:11.496Z,3.40
2018-07-12T01:44:11.472Z,3.50
2018-07-12T01:45:11.460Z,3.40
2018-07-12T01:46:11.451Z,3.60
2018-07-12T01:47:11.442Z,3.90
2018-07-12T01:48:11.460Z,3.40
2018-07-12T01:49:11.416Z,3.50
2018-07-12T01:50:11.407Z,3.40
2018-07-12T01:51:11.396Z,3.50
2018-07-12T01:52:11.385Z,3.30
2018-07-12T01:53:11.374Z,3.30
2018-07-12T01:54:11.377Z,3.40
2018-07-12T01:55:11.352Z,3.60
2018-07-12T01:56:11.342Z,3.40
2018-07-12T01:57:11.331Z,3.60
2018-07-12T01:58:11.321Z,3.60
2018-07-12T01:59:11.323Z,3.60
2018-07-12T02:00:11.299Z,3.60
2018-07-12T02:01:11.288Z,3.60
2018-07-12T02:02:11.277Z,5.50
2018-07-12T02:03:11.266Z,3.20
2018-07-12T02:04:11.270Z,3.30
2018-07-12T02:05:11.245Z,3.70
2018-07-12T02:06:11.234Z,3.70
2018-07-12T02:07:11.223Z,3.50
2018-07-12T02:08:11.212Z,3.80
2018-07-12T02:09:11.217Z,4.20
2018-07-12T02:10:11.191Z,3.60
2018-07-12T02:11:11.180Z,3.50
2018-07-12T02:12:11.171Z,3.50
2018-07-12T02:13:11.159Z,3.60
2018-07-12T02:14:11.163Z,3.50
2018-07-12T02:15:11.142Z,3.50
2018-07-12T02:16:11.127Z,3.60
2018-07-12T02:17:11.117Z,3.60
2018-07-12T02:18:11.106Z,3.80
2018-07-12T02:19:11.109Z,3.50
2018-07-12T02:20:11.087Z,3.80
2018-07-12T02:21:11.074Z,3.60
2018-07-12T02:22:11.063Z,3.70
2018-07-12T02:23:11.052Z,4.20
2018-07-12T02:24:11.055Z,3.40
2018-07-12T02:25:11.031Z,3.40
2018-07-12T02:26:11.020Z,3.40
2018-07-12T02:27:11.016Z,3.20
2018-07-12T02:28:11.000Z,3.60
2018-07-12T02:29:10.989Z,3.50
2018-07-12T02:30:10.992Z,3.50
2018-07-12T02:31:10.970Z,3.40
2018-07-12T02:32:10.956Z,4.50
2018-07-12T02:33:10.947Z,3.50
2018-07-12T02:34:10.935Z,3.70
2018-07-12T02:35:11.010Z,3.60
2018-07-12T02:36:10.914Z,3.30
2018-07-12T02:37:10.920Z,3.60
2018-07-12T02:38:10.897Z,3.70
2018-07-12T02:39:10.889Z,3.50
2018-07-12T02:40:10.891Z,3.70
2018-07-12T02:41:10.866Z,3.20
2018-07-12T02:42:10.851Z,3.40
2018-07-12T02:43:10.838Z,3.40
2018-07-12T02:44:10.828Z,3.80
2018-07-12T02:45:10.832Z,3.60
2018-07-12T02:46:10.806Z,3.60
2018-07-12T02:47:10.796Z,3.40
2018-07-12T02:48:10.789Z,3.20
2018-07-12T02:49:10.775Z,4.30
2018-07-12T02:50:10.777Z,3.40
2018-07-12T02:51:10.752Z,3.50
2018-07-12T02:52:10.741Z,3.40
2018-07-12T02:53:10.731Z,3.40
2018-07-12T02:54:10.723Z,4.10
2018-07-12T02:55:10.724Z,3.60
2018-07-12T02:56:10.698Z,3.40
2018-07-12T02:57:10.705Z,3.00
2018-07-12T02:58:10.677Z,3.20
2018-07-12T02:59:10.666Z,3.30
2018-07-12T03:00:10.670Z,3.10
2018-07-12T03:01:10.644Z,3.10
2018-07-12T03:02:10.634Z,3.50
2018-07-12T03:03:10.623Z,3.50
2018-07-12T03:04:10.614Z,3.40
2018-07-12T03:05:10.617Z,3.20
2018-07-12T03:06:10.592Z,3.50
2018-07-12T03:07:10.581Z,3.00
2018-07-12T03:08:10.570Z,3.40
2018-07-12T03:09:10.560Z,3.50
2018-07-12T03:10:10.562Z,3.30
2018-07-12T03:11:10.537Z,3.50
2018-07-12T03:12:10.529Z,3.20
2018-07-12T03:13:10.516Z,3.10
2018-07-12T03:14:10.505Z,3.00
2018-07-12T03:15:10.509Z,3.80
2018-07-12T03:16:10.489Z,3.20
2018-07-12T03:17:10.474Z,3.30
2018-07-12T03:18:10.463Z,3.30
2018-07-12T03:19:10.454Z,3.50
2018-07-12T03:20:10.456Z,3.80
2018-07-12T03:21:10.432Z,3.20
2018-07-12T03:22:10.421Z,3.50
2018-07-12T03:23:10.409Z,4.90
2018-07-12T03:24:10.399Z,3.30
2018-07-12T03:25:10.422Z,3.20
2018-07-12T03:26:10.379Z,3.50
2018-07-12T03:27:10.367Z,3.20
2018-07-12T03:28:10.361Z,3.60
2018-07-12T03:29:10.345Z,3.50
2018-07-12T03:30:10.337Z,3.50
2018-07-12T03:31:10.336Z,3.60
2018-07-12T03:32:10.314Z,3.40
2018-07-12T03:33:10.303Z,3.20
2018-07-12T03:34:10.292Z,3.30
2018-07-12T03:35:10.282Z,3.40
2018-07-12T03:36:10.286Z,3.40
2018-07-12T03:37:10.260Z,3.20
2018-07-12T03:38:10.251Z,3.30
2018-07-12T03:39:10.239Z,3.40
2018-07-12T03:40:10.228Z,3.50
2018-07-12T03:41:10.232Z,3.60
2018-07-12T03:42:10.209Z,4.10
2018-07-12T03:43:10.195Z,3.20
2018-07-12T03:44:10.185Z,3.70
2018-07-12T03:45:10.175Z,3.40
2018-07-12T03:46:10.180Z,3.30
2018-07-12T03:47:10.153Z,3.40
2018-07-12T03:48:10.142Z,3.20
2018-07-12T03:49:10.131Z,3.20
2018-07-12T03:50:10.121Z,3.40
2018-07-12T03:51:10.161Z,3.70
2018-07-12T03:52:10.101Z,3.10
2018-07-12T03:53:10.089Z,3.20
2018-07-12T03:54:10.077Z,3.40
2018-07-12T03:55:10.071Z,3.10
2018-07-12T03:56:10.069Z,3.10
2018-07-12T03:57:10.045Z,3.40
2018-07-12T03:58:10.091Z,4.60
2018-07-12T03:59:10.024Z,3.60
2018-07-12T04:00:10.014Z,3.80
2018-07-12T04:01:10.021Z,3.90
2018-07-12T04:02:09.991Z,3.30
2018-07-12T04:03:09.981Z,3.80
2018-07-12T04:04:10.020Z,3.60
2018-07-12T04:05:09.973Z,4.30
2018-07-12T04:06:09.976Z,3.80
2018-07-12T04:07:09.939Z,5.40
2018-07-12T04:08:09.926Z,5.10
2018-07-12T04:09:09.920Z,7.40
2018-07-12T04:10:09.909Z,5.70
2018-07-12T04:11:09.911Z,4.00
2018-07-12T04:12:09.883Z,4.30
2018-07-12T04:13:09.872Z,5.00
2018-07-12T04:14:09.861Z,5.20
2018-07-12T04:15:09.851Z,5.80
2018-07-12T04:16:09.861Z,4.50
2018-07-12T04:17:09.829Z,4.20
2018-07-12T04:18:09.822Z,5.50
2018-07-12T04:19:09.809Z,5.40
2018-07-12T04:20:09.797Z,5.40
2018-07-12T04:21:09.800Z,5.30
2018-07-12T04:22:09.776Z,4.30
2018-07-12T04:23:09.765Z,5.90
2018-07-12T04:24:09.755Z,4.30
2018-07-12T04:25:09.744Z,5.20
2018-07-12T04:26:09.753Z,5.20
2018-07-12T04:27:09.722Z,5.70
2018-07-12T04:28:09.711Z,5.40
2018-07-12T04:29:09.702Z,6.20
2018-07-12T04:30:09.691Z,5.10
2018-07-12T04:31:09.679Z,5.20
2018-07-12T04:32:09.685Z,4.20
2018-07-12T04:33:09.659Z,5.80
2018-07-12T04:34:09.656Z,5.50
2018-07-12T04:35:09.638Z,4.90
2018-07-12T04:36:09.628Z,4.90
2018-07-12T04:37:09.630Z,4.50
2018-07-12T04:38:09.605Z,4.90
2018-07-12T04:39:09.594Z,4.70
2018-07-12T04:40:09.583Z,3.80
2018-07-12T04:41:09.573Z,5.00
2018-07-12T04:42:09.576Z,5.80
2018-07-12T04:43:09.551Z,4.00
2018-07-12T04:44:09.540Z,3.90
2018-07-12T04:45:09.530Z,3.80
2018-07-12T04:46:09.520Z,4.40
2018-07-12T04:47:09.528Z,4.90
2018-07-12T04:48:09.498Z,4.20
2018-07-12T04:49:09.488Z,4.90
2018-07-12T04:50:09.480Z,4.60
2018-07-12T04:51:09.471Z,4.20
2018-07-12T04:52:09.470Z,4.40
2018-07-12T04:53:09.445Z,3.50
2018-07-12T04:54:09.437Z,3.90
2018-07-12T04:55:09.424Z,4.90
2018-07-12T04:56:09.416Z,4.00
2018-07-12T04:57:09.417Z,4.00
2018-07-12T04:58:09.438Z,4.60
2018-07-12T04:59:09.380Z,3.70
2018-07-12T05:00:09.372Z,4.00
2018-07-12T05:01:09.362Z,3.80
2018-07-12T05:02:09.365Z,4.20
2018-07-12T05:03:09.338Z,3.50
2018-07-12T05:04:09.327Z,3.80
2018-07-12T05:05:09.316Z,4.20
2018-07-12T05:06:09.307Z,3.50
2018-07-12T05:07:09.311Z,4.30
2018-07-12T05:08:09.288Z,4.70
2018-07-12T05:09:09.321Z,3.70
2018-07-12T05:10:09.263Z,3.70
2018-07-12T05:11:09.253Z,4.70
2018-07-12T05:12:09.270Z,4.70
2018-07-12T05:13:09.233Z,3.90
2018-07-12T05:14:09.220Z,3.90
2018-07-12T05:15:09.211Z,4.10
2018-07-12T05:16:09.239Z,3.80
2018-07-12T05:17:09.189Z,3.80
2018-07-12T05:18:09.197Z,4.70
2018-07-12T05:19:09.168Z,4.50
2018-07-12T05:20:09.157Z,4.20
2018-07-12T05:21:09.147Z,3.40
2018-07-12T05:22:09.137Z,3.60
2018-07-12T05:23:09.142Z,4.10
2018-07-12T05:24:09.114Z,4.30
2018-07-12T05:25:09.104Z,3.40
2018-07-12T05:26:09.094Z,4.40
2018-07-12T05:27:09.084Z,4.50
2018-07-12T05:28:09.085Z,3.80
2018-07-12T05:29:09.062Z,3.90
2018-07-12T05:30:09.051Z,3.50
2018-07-12T05:31:09.045Z,4.60
2018-07-12T05:32:09.034Z,4.00
2018-07-12T05:33:09.039Z,3.70
2018-07-12T05:34:09.017Z,4.00
2018-07-12T05:35:09.021Z,3.70
2018-07-12T05:36:08.987Z,3.50
2018-07-12T05:37:08.976Z,4.10
2018-07-12T05:38:08.980Z,4.10
2018-07-12T05:39:08.958Z,4.00
2018-07-12T05:40:08.944Z,4.10
2018-07-12T05:41:08.933Z,3.40
2018-07-12T05:42:08.924Z,3.80
2018-07-12T05:43:08.927Z,4.20
2018-07-12T05:44:08.903Z,3.40
2018-07-12T05:45:08.891Z,4.20
2018-07-12T05:46:08.881Z,3.80
2018-07-12T05:47:08.872Z,4.20
2018-07-12T05:48:08.884Z,3.30
2018-07-12T05:49:08.849Z,4.60
2018-07-12T05:50:08.838Z,3.50
2018-07-12T05:51:08.826Z,3.30
2018-07-12T05:52:08.816Z,3.50
2018-07-12T05:53:08.820Z,3.20
2018-07-12T05:54:08.794Z,3.10
2018-07-12T05:55:08.783Z,3.50
2018-07-12T05:56:08.773Z,3.20
2018-07-12T05:57:08.763Z,3.40
2018-07-12T05:58:08.779Z,3.30
2018-07-12T05:59:08.746Z,3.20
2018-07-12T06:00:08.729Z,3.90
2018-07-12T06:01:08.718Z,3.20
2018-07-12T06:02:08.708Z,3.20
2018-07-12T06:03:08.696Z,3.50
2018-07-12T06:04:08.702Z,3.20
2018-07-12T06:05:08.675Z,3.50
2018-07-12T06:06:08.666Z,3.90
2018-07-12T06:07:08.655Z,3.60
2018-07-12T06:08:08.643Z,3.90
2018-07-12T06:09:08.649Z,3.10
2018-07-12T06:10:08.623Z,3.30
2018-07-12T06:11:08.611Z,3.50
2018-07-12T06:12:08.600Z,3.30
2018-07-12T06:13:08.600Z,3.10
2018-07-12T06:14:08.592Z,3.60
2018-07-12T06:15:08.567Z,3.30
2018-07-12T06:16:08.594Z,3.40
2018-07-12T06:17:08.547Z,4.00
2018-07-12T06:18:08.537Z,3.10
2018-07-12T06:19:08.541Z,3.20
2018-07-12T06:20:08.518Z,4.20
2018-07-12T06:21:08.504Z,3.00
2018-07-12T06:22:08.494Z,3.30
2018-07-12T06:23:08.483Z,3.20
2018-07-12T06:24:08.486Z,2.90
2018-07-12T06:25:08.462Z,3.00
2018-07-12T06:26:08.451Z,3.10
2018-07-12T06:27:08.440Z,3.80
2018-07-12T06:28:08.430Z,3.00
2018-07-12T06:29:08.433Z,3.50
2018-07-12T06:30:08.408Z,3.20
2018-07-12T06:31:08.397Z,3.30
2018-07-12T06:32:08.385Z,3.70
2018-07-12T06:33:08.375Z,3.40
2018-07-12T06:34:08.380Z,3.70
2018-07-12T06:35:08.362Z,3.10
2018-07-12T06:36:08.343Z,3.10
2018-07-12T06:37:08.377Z,2.90
2018-07-12T06:38:08.320Z,3.00
2018-07-12T06:39:08.323Z,3.10
2018-07-12T06:40:08.302Z,3.20
2018-07-12T06:41:08.289Z,3.30
2018-07-12T06:42:08.277Z,2.90
2018-07-12T06:43:08.267Z,2.90
2018-07-12T06:44:08.271Z,3.50
2018-07-12T06:45:08.246Z,3.30
2018-07-12T06:46:08.236Z,3.30
2018-07-12T06:47:08.227Z,3.20
2018-07-12T06:48:08.217Z,3.00
2018-07-12T06:49:08.231Z,2.90
2018-07-12T06:50:08.194Z,3.30
2018-07-12T06:51:08.182Z,3.20
2018-07-12T06:52:08.171Z,3.20
2018-07-12T06:53:08.160Z,2.90
2018-07-12T06:54:08.148Z,2.80
2018-07-12T06:55:08.153Z,3.00
2018-07-12T06:56:08.127Z,3.10
2018-07-12T06:57:08.116Z,3.00
2018-07-12T06:58:23.026Z,3.10
2018-07-12T06:59:08.096Z,3.10
2018-07-12T07:00:08.104Z,3.10
2018-07-12T07:01:08.086Z,3.00
2018-07-12T07:02:08.078Z,3.00
2018-07-12T07:03:08.057Z,3.30
2018-07-12T07:04:08.063Z,2.70
2018-07-12T07:05:08.045Z,3.80
2018-07-12T07:06:08.021Z,3.50
2018-07-12T07:07:08.011Z,3.40
2018-07-12T07:08:08.000Z,3.00
2018-07-12T07:09:07.994Z,3.40
2018-07-12T07:10:07.991Z,3.00
2018-07-12T07:11:07.967Z,2.70
2018-07-12T07:12:07.959Z,2.80
2018-07-12T07:13:07.946Z,3.30
2018-07-12T07:14:07.940Z,2.90
2018-07-12T07:15:07.940Z,3.30
2018-07-12T07:16:07.917Z,3.20
2018-07-12T07:17:07.905Z,2.80
2018-07-12T07:18:07.893Z,3.20
2018-07-12T07:19:07.883Z,3.60
2018-07-12T07:20:07.893Z,2.90
2018-07-12T07:21:07.861Z,3.00
2018-07-12T07:22:07.851Z,3.00
2018-07-12T07:23:07.841Z,3.00
2018-07-12T07:24:07.831Z,3.00
2018-07-12T07:25:07.834Z,3.30
2018-07-12T07:26:07.837Z,3.00
2018-07-12T07:27:07.799Z,3.20
2018-07-12T07:28:07.788Z,3.10
2018-07-12T07:29:07.778Z,3.00
2018-07-12T07:30:07.780Z,2.90
2018-07-12T07:31:07.757Z,2.90
2018-07-12T07:32:07.747Z,3.30
2018-07-12T07:33:07.735Z,3.00
2018-07-12T07:34:07.725Z,2.90
2018-07-12T07:35:07.741Z,3.20
2018-07-12T07:36:07.703Z,3.00
2018-07-12T07:37:07.692Z,3.00
2018-07-12T07:38:07.682Z,3.00
2018-07-12T07:39:07.674Z,3.00
2018-07-12T07:40:07.660Z,3.00
2018-07-12T07:41:07.669Z,3.00
2018-07-12T07:42:07.641Z,2.80
2018-07-12T07:43:07.765Z,3.20
2018-07-12T07:44:07.621Z,3.20
2018-07-12T07:45:07.609Z,2.90
2018-07-12T07:46:07.611Z,3.10
2018-07-12T07:47:07.588Z,2.90
2018-07-12T07:48:07.576Z,3.00
2018-07-12T07:49:07.571Z,2.80
2018-07-12T07:50:07.555Z,2.70
2018-07-12T07:51:07.560Z,2.90
2018-07-12T07:52:07.534Z,2.70
2018-07-12T07:53:07.525Z,3.00
2018-07-12T07:54:07.513Z,2.90
2018-07-12T07:55:07.501Z,3.40
2018-07-12T07:56:07.505Z,2.70
2018-07-12T07:57:07.483Z,2.90
2018-07-12T07:58:07.469Z,2.80
2018-07-12T07:59:07.458Z,2.90
2018-07-12T08:00:07.449Z,3.00
2018-07-12T08:01:07.451Z,2.90
2018-07-12T08:02:07.428Z,3.30
2018-07-12T08:03:07.420Z,3.00
2018-07-12T08:04:07.409Z,3.00
2018-07-12T08:05:07.395Z,3.10
2018-07-12T08:06:07.398Z,2.70
2018-07-12T08:07:07.376Z,3.00
2018-07-12T08:08:07.361Z,2.90
2018-07-12T08:09:07.351Z,2.70
2018-07-12T08:10:07.345Z,2.80
2018-07-12T08:11:07.347Z,3.20
2018-07-12T08:12:07.319Z,2.70
2018-07-12T08:13:07.307Z,3.00
2018-07-12T08:14:07.296Z,3.20
2018-07-12T08:15:07.288Z,2.70
2018-07-12T08:16:07.294Z,2.80
2018-07-12T08:17:07.266Z,2.60
2018-07-12T08:18:07.254Z,3.00
2018-07-12T08:19:07.242Z,3.00
2018-07-12T08:20:07.236Z,2.60
2018-07-12T08:21:07.249Z,2.80
2018-07-12T08:22:07.211Z,2.80
2018-07-12T08:23:07.200Z,3.20
2018-07-12T08:24:07.189Z,3.10
2018-07-12T08:25:07.178Z,3.10
2018-07-12T08:26:07.169Z,2.70
2018-07-12T08:27:07.173Z,2.60
2018-07-12T08:28:07.148Z,2.80
2018-07-12T08:29:07.246Z,2.90
2018-07-12T08:30:07.159Z,3.20
2018-07-12T08:31:07.188Z,2.60
2018-07-12T08:32:07.119Z,3.10
2018-07-12T08:33:07.091Z,3.20
2018-07-12T08:34:07.081Z,2.80
2018-07-12T08:35:07.068Z,2.90
2018-07-12T08:36:07.111Z,2.90
2018-07-12T08:37:07.063Z,2.90
2018-07-12T08:38:07.037Z,2.50
2018-07-12T08:39:07.025Z,2.60
2018-07-12T08:40:07.015Z,2.80
2018-07-12T08:41:07.004Z,2.80
2018-07-12T08:42:07.008Z,2.70
2018-07-12T08:43:06.982Z,2.90
2018-07-12T08:44:06.971Z,2.90
2018-07-12T08:45:06.962Z,2.60
2018-07-12T08:46:06.974Z,2.70
2018-07-12T08:47:06.953Z,2.70
2018-07-12T08:48:06.977Z,2.80
2018-07-12T08:49:06.917Z,2.70
2018-07-12T08:50:06.907Z,2.70
2018-07-12T08:51:06.895Z,2.60
2018-07-12T08:52:06.900Z,3.10
2018-07-12T08:53:06.911Z,2.60
2018-07-12T08:54:06.865Z,2.70
2018-07-12T08:55:06.853Z,2.60
2018-07-12T08:56:06.841Z,2.80
2018-07-12T08:57:06.844Z,2.90
2018-07-12T08:58:06.820Z,2.80
2018-07-12T08:59:06.811Z,2.70
2018-07-12T09:00:06.798Z,2.40
2018-07-12T09:01:06.787Z,2.60
2018-07-12T09:02:06.790Z,2.80
2018-07-12T09:03:06.865Z,2.70
2018-07-12T09:04:06.759Z,2.60
2018-07-12T09:05:06.744Z,2.60
2018-07-12T09:06:06.733Z,3.10
2018-07-12T09:07:06.739Z,2.80
2018-07-12T09:08:06.711Z,2.70
2018-07-12T09:09:06.700Z,2.80
2018-07-12T09:10:06.690Z,2.50
2018-07-12T09:11:06.680Z,2.90
2018-07-12T09:12:06.688Z,2.90
2018-07-12T09:13:06.657Z,2.70
2018-07-12T09:14:06.646Z,2.50
2018-07-12T09:15:06.635Z,2.60
2018-07-12T09:16:06.624Z,2.80
2018-07-12T09:17:06.632Z,2.80
2018-07-12T09:18:06.603Z,2.60
2018-07-12T09:19:06.592Z,2.70
2018-07-12T09:20:06.583Z,2.70
2018-07-12T09:21:06.571Z,2.60
2018-07-12T09:22:06.587Z,2.60
2018-07-12T09:23:06.549Z,2.60
2018-07-12T09:24:06.537Z,2.50
2018-07-12T09:25:06.530Z,2.90
2018-07-12T09:26:06.515Z,2.90
2018-07-12T09:27:06.505Z,2.60
2018-07-12T09:28:06.509Z,2.50
2018-07-12T09:29:06.488Z,2.60
2018-07-12T09:30:06.474Z,2.60
2018-07-12T09:31:06.463Z,2.70
2018-07-12T09:32:06.452Z,2.60
2018-07-12T09:33:06.458Z,2.50
2018-07-12T09:34:06.428Z,2.70
2018-07-12T09:35:06.419Z,2.70
2018-07-12T09:36:06.408Z,2.50
2018-07-12T09:37:06.473Z,2.50
2018-07-12T09:38:06.400Z,2.60
2018-07-12T09:39:06.378Z,2.50
2018-07-12T09:40:06.366Z,2.60
2018-07-12T09:41:06.356Z,2.50
2018-07-12T09:42:06.344Z,2.70
2018-07-12T09:43:06.350Z,2.80
2018-07-12T09:44:06.323Z,2.50
2018-07-12T09:45:06.312Z,2.50
2018-07-12T09:46:06.301Z,3.00
2018-07-12T09:47:06.298Z,2.40
2018-07-12T09:48:06.295Z,2.60
2018-07-12T09:49:06.390Z,2.50
2018-07-12T09:50:06.295Z,2.60
2018-07-12T09:51:06.249Z,2.50
2018-07-12T09:52:06.238Z,2.90
2018-07-12T09:53:06.244Z,2.40
2018-07-12T09:54:06.217Z,2.30
2018-07-12T09:55:06.208Z,2.50
2018-07-12T09:56:06.370Z,2.60
2018-07-12T09:57:06.198Z,2.50
2018-07-12T09:58:06.209Z,2.50
2018-07-12T09:59:06.195Z,2.40
2018-07-12T10:00:06.156Z,2.80
2018-07-12T10:01:06.176Z,2.50
2018-07-12T10:02:06.132Z,2.50
2018-07-12T10:03:06.140Z,2.30
2018-07-12T10:04:06.112Z,2.50
2018-07-12T10:05:06.102Z,2.50
2018-07-12T10:06:06.091Z,2.60
2018-07-12T10:07:06.080Z,2.40
2018-07-12T10:08:06.084Z,2.20
2018-07-12T10:09:06.061Z,2.50
2018-07-12T10:10:06.048Z,2.70
2018-07-12T10:11:06.039Z,2.50
2018-07-12T10:12:06.029Z,2.40
2018-07-12T10:13:06.031Z,2.50
2018-07-12T10:14:06.007Z,2.70
2018-07-12T10:15:05.996Z,2.50
2018-07-12T10:16:05.985Z,2.60
2018-07-12T10:17:05.975Z,2.50
2018-07-12T10:18:05.977Z,2.40
2018-07-12T10:19:05.956Z,2.60
2018-07-12T10:20:05.944Z,2.80
2018-07-12T10:21:05.933Z,2.30
2018-07-12T10:22:05.922Z,2.60
2018-07-12T10:23:05.924Z,2.20
2018-07-12T10:24:05.898Z,2.60
2018-07-12T10:25:05.889Z,2.70
2018-07-12T10:26:05.878Z,2.40
2018-07-12T10:27:05.867Z,2.30
2018-07-12T10:28:05.869Z,2.40
2018-07-12T10:29:05.845Z,2.50
2018-07-12T10:30:05.834Z,2.40
2018-07-12T10:31:05.823Z,2.30
2018-07-12T10:32:05.813Z,2.60
2018-07-12T10:33:05.816Z,2.40
2018-07-12T10:34:05.794Z,2.30
2018-07-12T10:35:05.782Z,2.20
2018-07-12T10:36:05.771Z,2.50
2018-07-12T10:37:05.761Z,2.30
2018-07-12T10:38:05.764Z,2.30
2018-07-12T10:39:05.739Z,2.30
2018-07-12T10:40:05.729Z,2.30
2018-07-12T10:41:05.719Z,2.50
2018-07-12T10:42:05.708Z,2.50
2018-07-12T10:43:05.697Z,2.30
2018-07-12T10:44:05.699Z,2.30
2018-07-12T10:45:05.676Z,2.30
2018-07-12T10:46:05.664Z,2.50
2018-07-12T10:47:05.654Z,2.30
2018-07-12T10:48:05.644Z,2.40
2018-07-12T10:49:05.648Z,2.10
2018-07-12T10:50:05.625Z,2.40
2018-07-12T10:51:05.613Z,2.60
2018-07-12T10:52:05.601Z,2.50
2018-07-12T10:53:05.593Z,2.30
2018-07-12T10:54:05.595Z,2.30
2018-07-12T10:55:05.573Z,2.40
2018-07-12T10:56:05.560Z,2.30
2018-07-12T10:57:05.549Z,2.40
2018-07-12T10:58:05.540Z,2.40
2018-07-12T10:59:05.543Z,2.30
2018-07-12T11:00:05.519Z,2.30
2018-07-12T11:01:05.509Z,2.40
2018-07-12T11:02:05.499Z,2.20
2018-07-12T11:03:05.488Z,2.40
2018-07-12T11:04:05.493Z,2.10
2018-07-12T11:05:05.468Z,2.40
2018-07-12T11:06:05.456Z,2.20
2018-07-12T11:07:05.447Z,2.10
2018-07-12T11:08:05.435Z,2.30
2018-07-12T11:09:05.457Z,2.20
2018-07-12T11:10:05.416Z,2.10
2018-07-12T11:11:05.404Z,2.30
2018-07-12T11:12:05.395Z,2.00
2018-07-12T11:13:05.383Z,2.30
2018-07-12T11:14:05.390Z,2.30
2018-07-12T11:15:05.363Z,2.50
2018-07-12T11:16:05.355Z,2.30
2018-07-12T11:17:05.343Z,1.90
2018-07-12T11:18:05.333Z,2.30
2018-07-12T11:19:05.337Z,2.30
2018-07-12T11:20:05.313Z,2.30
2018-07-12T11:21:05.313Z,2.40
2018-07-12T11:22:05.296Z,2.20
2018-07-12T11:23:05.284Z,2.30
2018-07-12T11:24:05.307Z,2.30
2018-07-12T11:25:05.275Z,1.80
2018-07-12T11:26:05.254Z,2.20
2018-07-12T11:27:05.242Z,2.10
2018-07-12T11:28:05.270Z,1.80
2018-07-12T11:29:05.221Z,2.20
2018-07-12T11:30:05.224Z,2.10
2018-07-12T11:31:05.201Z,2.00
2018-07-12T11:32:05.190Z,2.00
2018-07-12T11:33:05.179Z,2.20
2018-07-12T11:34:05.171Z,2.30
2018-07-12T11:35:05.173Z,2.20
2018-07-12T11:36:05.150Z,2.20
2018-07-12T11:37:05.180Z,2.20
2018-07-12T11:38:05.128Z,1.90
2018-07-12T11:39:05.117Z,2.10
2018-07-12T11:40:05.121Z,2.10
2018-07-12T11:41:05.098Z,2.00
2018-07-12T11:42:05.088Z,1.90
2018-07-12T11:43:05.077Z,2.20
2018-07-12T11:44:05.067Z,2.10
2018-07-12T11:45:05.070Z,2.10
2018-07-12T11:46:05.046Z,2.30
2018-07-12T11:47:05.038Z,2.20
2018-07-12T11:48:05.024Z,2.00
2018-07-12T11:49:05.015Z,2.20
2018-07-12T11:50:05.016Z,1.90
2018-07-12T11:51:04.993Z,2.20
2018-07-12T11:52:04.983Z,2.40
2018-07-12T11:53:04.973Z,2.10
2018-07-12T11:54:04.962Z,2.20
2018-07-12T11:55:04.971Z,2.10
2018-07-12T11:56:04.941Z,2.10
2018-07-12T11:57:04.930Z,2.30
2018-07-12T11:58:04.923Z,2.10
2018-07-12T11:59:04.910Z,2.10
2018-07-12T12:00:04.913Z,2.30
2018-07-12T12:01:04.889Z,2.00
2018-07-12T12:02:04.904Z,2.00
2018-07-12T12:03:04.868Z,1.90
2018-07-12T12:04:04.861Z,2.10
2018-07-12T12:05:04.861Z,2.00
2018-07-12T12:06:04.839Z,2.20
2018-07-12T12:07:04.826Z,2.00
2018-07-12T12:08:04.816Z,2.00
2018-07-12T12:09:04.804Z,2.30
2018-07-12T12:10:04.808Z,2.00
2018-07-12T12:11:04.783Z,2.20
2018-07-12T12:12:04.773Z,2.20
2018-07-12T12:13:04.764Z,2.20
2018-07-12T12:14:04.753Z,2.20
2018-07-12T12:15:04.756Z,2.30
2018-07-12T12:16:04.729Z,2.00
2018-07-12T12:17:04.719Z,2.00
2018-07-12T12:18:04.712Z,1.90
2018-07-12T12:19:04.699Z,2.10
2018-07-12T12:20:04.704Z,2.00
2018-07-12T12:21:04.678Z,2.30
2018-07-12T12:22:04.668Z,2.20
2018-07-12T12:23:04.658Z,2.10
2018-07-12T12:24:04.647Z,1.80
2018-07-12T12:25:04.652Z,2.00
2018-07-12T12:26:04.626Z,2.10
2018-07-12T12:27:04.622Z,2.20
2018-07-12T12:28:04.609Z,2.00
2018-07-12T12:29:04.596Z,2.20
2018-07-12T12:30:04.609Z,1.90
2018-07-12T12:31:04.574Z,2.10
2018-07-12T12:32:04.566Z,2.10
2018-07-12T12:33:04.556Z,2.30
2018-07-12T12:34:04.545Z,2.00
2018-07-12T12:35:04.534Z,2.10
2018-07-12T12:36:04.537Z,2.10
2018-07-12T12:37:04.514Z,2.20
2018-07-12T12:38:04.503Z,2.00
2018-07-12T12:39:04.497Z,2.00
2018-07-12T12:40:04.482Z,2.00
2018-07-12T12:41:04.488Z,2.00
2018-07-12T12:42:04.461Z,2.10
2018-07-12T12:43:04.451Z,2.00
2018-07-12T12:44:04.440Z,1.90
2018-07-12T12:45:04.432Z,2.10
2018-07-12T12:46:04.434Z,1.80
2018-07-12T12:47:04.412Z,2.00
2018-07-12T12:48:04.400Z,2.00
2018-07-12T12:49:04.391Z,2.10
2018-07-12T12:50:04.378Z,1.90
2018-07-12T12:51:04.382Z,2.10
2018-07-12T12:52:04.367Z,2.10
2018-07-12T12:53:04.351Z,1.90
2018-07-12T12:54:04.351Z,2.10
2018-07-12T12:55:04.339Z,2.00
2018-07-12T12:56:04.338Z,2.20
2018-07-12T12:57:04.305Z,2.10
2018-07-12T12:58:04.294Z,1.90
2018-07-12T12:59:04.284Z,1.90
2018-07-12T13:00:04.328Z,2.50
2018-07-12T13:01:04.276Z,2.20
2018-07-12T13:02:04.250Z,2.00
2018-07-12T13:03:04.241Z,1.90
2018-07-12T13:04:04.229Z,2.20
2018-07-12T13:05:04.220Z,2.00
2018-07-12T13:06:04.223Z,2.10
2018-07-12T13:07:04.199Z,2.00
2018-07-12T13:08:04.237Z,1.90
2018-07-12T13:09:04.177Z,2.20
2018-07-12T13:10:04.168Z,2.20
2018-07-12T13:11:04.169Z,1.90
2018-07-12T13:12:04.158Z,2.10
2018-07-12T13:13:04.135Z,2.10
2018-07-12T13:14:04.123Z,2.20
2018-07-12T13:15:04.113Z,2.10
2018-07-12T13:16:04.124Z,2.20
2018-07-12T13:17:04.092Z,1.80
2018-07-12T13:18:04.085Z,1.80